createdAt,value
2022-10-09T00:00:46.756Z,8.36
2022-10-09T00:03:14.624Z,8.35
2022-10-09T00:05:41.621Z,8.33
2022-10-09T00:08:08.373Z,8.33
2022-10-09T00:10:35.325Z,8.31
2022-10-09T00:13:01.920Z,8.29
2022-10-09T00:15:28.523Z,8.27
2022-10-09T00:17:55.077Z,8.25
2022-10-09T00:20:21.626Z,8.23
2022-10-09T00:22:48.665Z,8.19
2022-10-09T00:25:15.456Z,8.17
2022-10-09T00:27:41.993Z,8.16
2022-10-09T00:30:09.164Z,8.13
2022-10-09T00:32:35.720Z,8.11
2022-10-09T00:35:02.277Z,8.09
2022-10-09T00:37:28.896Z,8.06
2022-10-09T00:39:55.444Z,8.04
2022-10-09T00:42:22.033Z,8.02
2022-10-09T00:44:54.176Z,7.98
2022-10-09T00:47:29.732Z,7.98
2022-10-09T00:50:02.583Z,7.99
2022-10-09T00:52:29.736Z,7.95
2022-10-09T00:54:57.809Z,7.92
2022-10-09T00:57:25.038Z,7.91
2022-10-09T00:59:51.798Z,7.88
2022-10-09T01:02:18.625Z,7.85
2022-10-09T01:04:45.349Z,7.82
2022-10-09T01:10:01.157Z,7.77
2022-10-09T01:17:50.128Z,7.72
2022-10-09T01:20:44.925Z,7.67
2022-10-09T01:26:00.637Z,7.74
2022-10-09T01:28:29.433Z,7.74
2022-10-09T01:31:00.305Z,7.75
2022-10-09T01:33:28.941Z,7.77
2022-10-09T01:35:56.093Z,7.77
2022-10-09T01:38:24.770Z,7.77
2022-10-09T01:40:53.588Z,7.75
2022-10-09T01:43:20.289Z,7.75
2022-10-09T01:45:48.554Z,7.75
2022-10-09T01:48:25.051Z,7.72
2022-10-09T01:50:57.926Z,7.72
2022-10-09T01:53:24.996Z,7.70
2022-10-09T01:56:14.552Z,7.66
2022-10-09T01:58:48.842Z,7.70
2022-10-09T02:03:52.451Z,7.69
2022-10-09T02:06:19.787Z,7.68
2022-10-09T02:08:51.387Z,7.67
2022-10-09T02:11:18.265Z,7.68
2022-10-09T02:13:47.679Z,7.68
2022-10-09T02:16:26.374Z,7.66
2022-10-09T02:19:06.571Z,7.64
2022-10-09T02:24:20.491Z,7.64
2022-10-09T02:26:47.415Z,7.63
2022-10-09T02:29:15.698Z,7.59
2022-10-09T02:31:43.650Z,7.59
2022-10-09T02:34:12.889Z,7.56
2022-10-09T02:36:39.944Z,7.55
2022-10-09T02:39:08.004Z,7.53
2022-10-09T02:41:35.210Z,7.50
2022-10-09T02:44:03.347Z,7.46
2022-10-09T02:46:30.237Z,7.45
2022-10-09T02:48:56.790Z,7.43
2022-10-09T02:51:23.528Z,7.40
2022-10-09T02:53:53.773Z,7.38
2022-10-09T02:56:20.975Z,7.25
2022-10-09T02:58:47.533Z,7.31
2022-10-09T03:01:14.133Z,7.31
2022-10-09T03:03:40.766Z,7.34
2022-10-09T03:08:46.978Z,7.34
2022-10-09T03:11:14.832Z,7.33
2022-10-09T03:13:41.790Z,7.32
2022-10-09T03:18:44.881Z,7.28
2022-10-09T03:21:14.312Z,7.28
2022-10-09T03:23:42.630Z,7.25
2022-10-09T03:26:12.121Z,7.24
2022-10-09T03:28:40.952Z,7.23
2022-10-09T03:31:08.521Z,7.19
2022-10-09T03:33:36.115Z,7.16
2022-10-09T03:36:04.080Z,7.13
2022-10-09T03:38:30.790Z,7.13
2022-10-09T03:40:59.975Z,7.10
2022-10-09T03:43:26.636Z,7.11
2022-10-09T03:45:53.160Z,7.09
2022-10-09T03:48:19.752Z,7.09
2022-10-09T03:50:46.269Z,7.09
2022-10-09T03:53:13.934Z,7.10
2022-10-09T03:55:41.532Z,7.08
2022-10-09T03:58:08.417Z,7.10
2022-10-09T04:00:35.907Z,7.09
2022-10-09T04:03:02.875Z,7.08
2022-10-09T04:05:32.437Z,7.07
2022-10-09T04:07:58.966Z,7.06
2022-10-09T04:10:25.500Z,7.05
2022-10-09T04:12:52.069Z,7.07
2022-10-09T04:15:18.650Z,7.08
2022-10-09T04:17:45.162Z,7.06
2022-10-09T04:20:11.932Z,7.09
2022-10-09T04:22:38.486Z,7.09
2022-10-09T04:25:05.431Z,7.06
2022-10-09T04:27:32.336Z,7.10
2022-10-09T04:29:59.015Z,7.10
2022-10-09T04:32:25.578Z,7.10
2022-10-09T04:34:52.144Z,7.10
2022-10-09T04:37:18.681Z,7.06
2022-10-09T04:39:45.257Z,7.03
2022-10-09T04:42:11.771Z,7.02
2022-10-09T04:44:38.317Z,7.00
2022-10-09T04:47:08.072Z,6.96
2022-10-09T04:49:37.104Z,6.91
2022-10-09T04:52:03.770Z,6.88
2022-10-09T04:54:30.305Z,6.86
2022-10-09T04:56:56.860Z,6.84
2022-10-09T04:59:23.386Z,6.82
2022-10-09T05:01:50.017Z,6.79
2022-10-09T05:04:16.629Z,6.75
2022-10-09T05:06:43.142Z,6.74
2022-10-09T05:09:09.765Z,6.75
2022-10-09T05:11:40.400Z,6.73
2022-10-09T05:14:09.237Z,6.71
2022-10-09T05:17:00.910Z,6.69
2022-10-09T05:19:22.352Z,6.68
2022-10-09T05:21:48.910Z,6.66
2022-10-09T05:24:15.445Z,6.63
2022-10-09T05:26:41.981Z,6.62
2022-10-09T05:29:08.663Z,6.58
2022-10-09T05:31:35.493Z,6.54
2022-10-09T05:34:02.256Z,6.51
2022-10-09T05:36:28.921Z,6.48
2022-10-09T05:38:56.581Z,6.46
2022-10-09T05:41:23.489Z,6.43
2022-10-09T05:43:50.413Z,6.41
2022-10-09T05:46:20.353Z,6.40
2022-10-09T05:48:52.618Z,6.40
2022-10-09T05:51:23.013Z,6.40
2022-10-09T05:53:50.575Z,6.40
2022-10-09T05:58:56.549Z,6.41
2022-10-09T06:01:25.454Z,6.41
2022-10-09T06:03:54.399Z,6.40
2022-10-09T06:06:23.204Z,6.43
2022-10-09T06:08:50.213Z,6.42
2022-10-09T06:11:23.756Z,6.41
2022-10-09T06:13:52.058Z,6.42
2022-10-09T06:16:19.004Z,6.43
2022-10-09T06:18:49.361Z,6.44
2022-10-09T06:21:16.863Z,6.48
2022-10-09T06:23:43.702Z,6.52
2022-10-09T06:26:13.304Z,6.54
2022-10-09T06:28:40.838Z,6.61
2022-10-09T06:31:10.333Z,6.65
2022-10-09T06:33:39.098Z,6.66
2022-10-09T06:36:10.447Z,6.71
2022-10-09T06:38:38.752Z,6.77
2022-10-09T06:41:07.623Z,6.79
2022-10-09T06:43:34.261Z,6.77
2022-10-09T06:46:02.494Z,6.86
2022-10-09T06:48:31.226Z,6.86
2022-10-09T06:53:46.481Z,6.98
2022-10-09T06:56:13.584Z,7.02
2022-10-09T06:58:40.965Z,7.08
2022-10-09T07:03:46.126Z,7.13
2022-10-09T07:08:54.846Z,7.26
2022-10-09T07:11:24.202Z,7.28
2022-10-09T07:13:54.395Z,7.40
2022-10-09T07:16:23.825Z,7.46
2022-10-09T07:18:51.383Z,7.53
2022-10-09T07:21:18.355Z,7.63
2022-10-09T07:23:45.455Z,7.70
2022-10-09T07:28:49.677Z,7.89
2022-10-09T07:31:17.540Z,8.00
2022-10-09T07:33:48.075Z,8.13
2022-10-09T07:36:14.985Z,8.23
2022-10-09T07:38:41.758Z,8.34
2022-10-09T07:41:11.746Z,8.46
2022-10-09T07:43:40.058Z,8.52
2022-10-09T07:46:10.052Z,8.67
2022-10-09T07:48:37.855Z,8.76
2022-10-09T07:53:46.193Z,8.99
2022-10-09T07:56:17.880Z,9.09
2022-10-09T07:58:49.843Z,9.31
2022-10-09T08:01:20.137Z,9.49
2022-10-09T08:03:47.988Z,9.64
2022-10-09T08:06:15.337Z,9.83
2022-10-09T08:08:42.507Z,10.03
2022-10-09T08:11:11.658Z,10.61
2022-10-09T08:13:38.697Z,11.32
2022-10-09T08:16:05.955Z,12.08
2022-10-09T08:18:32.866Z,12.77
2022-10-09T08:21:02.440Z,13.46
2022-10-09T08:23:29.318Z,14.01
2022-10-09T08:25:56.385Z,14.38
2022-10-09T08:28:23.521Z,14.62
2022-10-09T08:30:50.339Z,15.12
2022-10-09T08:33:21.942Z,15.80
2022-10-09T08:35:50.037Z,16.13
2022-10-09T08:38:37.468Z,16.11
2022-10-09T08:43:45.923Z,16.24
2022-10-09T08:46:21.256Z,16.43
2022-10-09T08:48:51.176Z,16.61
2022-10-09T08:51:29.622Z,16.93
2022-10-09T08:54:11.540Z,17.45
2022-10-09T08:56:39.774Z,18.01
2022-10-09T08:59:06.688Z,18.56
2022-10-09T09:01:48.353Z,19.18
2022-10-09T09:07:20.903Z,20.21
2022-10-09T09:12:44.311Z,21.23
2022-10-09T09:15:44.902Z,21.64
2022-10-09T09:21:06.939Z,21.66
2022-10-09T09:23:40.765Z,21.93
2022-10-09T09:26:16.177Z,22.08
2022-10-09T09:28:44.718Z,22.31
2022-10-09T09:33:58.538Z,22.72
2022-10-09T09:36:48.790Z,22.88
2022-10-09T09:40:08.196Z,23.16
2022-10-09T09:42:21.798Z,23.51
2022-10-09T09:45:00.376Z,23.75
2022-10-09T09:47:34.103Z,23.67
2022-10-09T09:50:03.119Z,23.51
2022-10-09T09:52:35.674Z,23.41
2022-10-09T09:55:03.121Z,23.55
2022-10-09T09:57:34.535Z,23.69
2022-10-09T10:03:03.321Z,23.76
2022-10-09T10:05:36.556Z,23.66
2022-10-09T10:08:15.173Z,23.84
2022-10-09T10:10:51.530Z,24.06
2022-10-09T10:13:22.291Z,24.01
2022-10-09T10:15:52.899Z,24.27
2022-10-09T10:18:20.847Z,24.23
2022-10-09T10:20:52.768Z,24.38
2022-10-09T10:23:51.916Z,24.59
2022-10-09T10:26:43.516Z,24.49
2022-10-09T10:37:53.253Z,23.87
2022-10-09T10:46:17.516Z,22.18
2022-10-09T10:48:47.168Z,21.94
2022-10-09T11:02:42.155Z,20.72
2022-10-09T11:05:14.422Z,20.26
2022-10-09T11:21:40.701Z,19.44
2022-10-09T11:29:31.047Z,19.64
2022-10-09T11:32:05.757Z,19.64
2022-10-09T11:34:41.487Z,19.64
2022-10-09T11:37:17.928Z,19.58
2022-10-09T11:39:45.325Z,19.44
2022-10-09T11:42:17.427Z,19.32
2022-10-09T11:48:12.692Z,19.26
2022-10-09T11:53:26.045Z,19.40
2022-10-09T11:56:29.644Z,19.41
2022-10-09T12:06:54.805Z,19.38
2022-10-09T12:09:26.417Z,19.40
2022-10-09T12:11:59.658Z,19.35
2022-10-09T12:14:28.162Z,19.34
2022-10-09T12:16:55.592Z,19.34
2022-10-09T12:19:37.975Z,19.32
2022-10-09T12:24:45.537Z,19.27
2022-10-09T12:27:21.968Z,19.17
2022-10-09T12:29:54.903Z,19.09
2022-10-09T12:32:34.679Z,19.02
2022-10-09T12:35:04.399Z,18.95
2022-10-09T12:37:35.152Z,18.90
2022-10-09T12:40:15.570Z,18.75
2022-10-09T12:42:44.812Z,18.68
2022-10-09T12:45:19.301Z,18.60
2022-10-09T12:47:46.580Z,18.59
2022-10-09T12:52:57.547Z,18.54
2022-10-09T12:55:30.531Z,18.59
2022-10-09T12:58:01.022Z,18.47
2022-10-09T13:00:27.721Z,18.57
2022-10-09T13:02:54.836Z,18.59
2022-10-09T13:05:22.068Z,18.52
2022-10-09T13:07:54.567Z,18.41
2022-10-09T13:10:23.881Z,18.39
2022-10-09T13:12:52.774Z,18.39
2022-10-09T13:15:32.109Z,18.36
2022-10-09T13:17:58.892Z,18.37
2022-10-09T13:20:30.578Z,18.35
2022-10-09T13:23:00.986Z,18.37
2022-10-09T13:25:33.303Z,18.40
2022-10-09T13:27:59.916Z,18.40
2022-10-09T13:30:28.321Z,18.49
2022-10-09T13:32:55.448Z,18.56
2022-10-09T13:35:22.142Z,18.51
2022-10-09T13:37:49.401Z,18.49
2022-10-09T13:40:19.811Z,18.52
2022-10-09T13:42:54.006Z,18.59
2022-10-09T13:45:21.509Z,18.62
2022-10-09T13:47:48.402Z,18.55
2022-10-09T13:50:16.098Z,18.54
2022-10-09T13:52:42.947Z,18.53
2022-10-09T13:55:09.937Z,18.65
2022-10-09T13:57:36.615Z,18.71
2022-10-09T14:00:05.182Z,18.83
2022-10-09T14:02:31.775Z,18.85
2022-10-09T14:04:58.324Z,18.91
2022-10-09T14:07:24.893Z,18.90
2022-10-09T14:09:51.433Z,18.91
2022-10-09T14:12:17.957Z,18.90
2022-10-09T14:14:44.513Z,18.86
2022-10-09T14:17:11.038Z,18.83
2022-10-09T14:19:37.725Z,18.65
2022-10-09T14:22:04.270Z,18.58
2022-10-09T14:24:30.808Z,18.52
2022-10-09T14:26:57.317Z,18.42
2022-10-09T14:29:23.894Z,18.32
2022-10-09T14:31:51.612Z,18.08
2022-10-09T14:34:18.353Z,18.04
2022-10-09T14:36:45.022Z,17.98
2022-10-09T14:39:11.785Z,17.92
2022-10-09T14:41:38.315Z,17.87
2022-10-09T14:44:05.792Z,17.85
2022-10-09T14:46:34.145Z,17.85
2022-10-09T14:49:07.271Z,17.91
2022-10-09T14:51:37.105Z,17.96
2022-10-09T14:54:04.633Z,17.98
2022-10-09T14:56:31.351Z,17.96
2022-10-09T14:59:00.570Z,17.97
2022-10-09T15:01:28.207Z,17.96
2022-10-09T15:03:55.320Z,18.00
2022-10-09T15:06:25.779Z,18.01
2022-10-09T15:08:56.665Z,17.99
2022-10-09T15:11:24.286Z,17.91
2022-10-09T15:13:50.923Z,17.81
2022-10-09T15:16:19.726Z,17.77
2022-10-09T15:18:48.583Z,17.68
2022-10-09T15:21:18.642Z,17.60
2022-10-09T15:23:46.545Z,17.54
2022-10-09T15:26:14.049Z,17.51
2022-10-09T15:28:43.359Z,17.46
2022-10-09T15:33:57.604Z,17.39
2022-10-09T15:36:25.051Z,17.37
2022-10-09T15:38:51.584Z,17.31
2022-10-09T15:41:22.179Z,17.29
2022-10-09T15:43:49.639Z,17.26
2022-10-09T15:46:16.229Z,17.30
2022-10-09T15:48:43.209Z,17.19
2022-10-09T15:51:13.635Z,17.19
2022-10-09T15:53:43.348Z,17.17
2022-10-09T15:56:11.847Z,16.99
2022-10-09T15:58:38.458Z,17.07
2022-10-09T16:01:07.476Z,17.00
2022-10-09T16:03:36.973Z,16.96
2022-10-09T16:06:04.823Z,16.70
2022-10-09T16:08:31.613Z,16.80
2022-10-09T16:10:58.645Z,16.78
2022-10-09T16:13:26.273Z,16.75
2022-10-09T16:15:53.117Z,16.72
2022-10-09T16:18:22.715Z,16.67
2022-10-09T16:20:50.248Z,16.66
2022-10-09T16:23:17.688Z,16.63
2022-10-09T16:25:44.667Z,16.58
2022-10-09T16:28:12.555Z,16.51
2022-10-09T16:30:41.325Z,16.43
2022-10-09T16:33:12.259Z,16.45
2022-10-09T16:35:39.351Z,16.40
2022-10-09T16:38:06.220Z,16.35
2022-10-09T16:40:57.489Z,16.34
2022-10-09T16:43:20.261Z,16.26
2022-10-09T16:45:46.781Z,16.21
2022-10-09T16:48:13.292Z,16.17
2022-10-09T16:50:42.308Z,16.13
2022-10-09T16:53:09.416Z,16.08
2022-10-09T16:55:36.470Z,16.02
2022-10-09T16:58:03.142Z,15.97
2022-10-09T17:00:29.816Z,15.92
2022-10-09T17:02:56.912Z,15.89
2022-10-09T17:05:25.503Z,15.84
2022-10-09T17:07:52.507Z,15.79
2022-10-09T17:10:19.505Z,15.72
2022-10-09T17:12:46.044Z,15.64
2022-10-09T17:15:13.566Z,15.57
2022-10-09T17:17:40.241Z,15.49
2022-10-09T17:20:07.695Z,15.44
2022-10-09T17:22:34.282Z,15.33
2022-10-09T17:25:00.839Z,15.29
2022-10-09T17:27:27.369Z,15.14
2022-10-09T17:29:53.897Z,15.13
2022-10-09T17:32:20.667Z,15.08
2022-10-09T17:34:47.405Z,15.05
2022-10-09T17:37:13.933Z,15.03
2022-10-09T17:39:42.241Z,14.98
2022-10-09T17:42:10.787Z,14.92
2022-10-09T17:44:37.367Z,14.90
2022-10-09T17:47:05.362Z,14.86
2022-10-09T17:49:31.998Z,14.83
2022-10-09T17:51:58.540Z,14.79
2022-10-09T17:54:25.126Z,14.73
2022-10-09T17:56:51.653Z,14.69
2022-10-09T17:59:18.232Z,14.65
2022-10-09T18:01:45.063Z,14.62
2022-10-09T18:04:15.888Z,14.60
2022-10-09T18:06:42.967Z,14.57
2022-10-09T18:09:09.768Z,14.52
2022-10-09T18:11:36.345Z,14.48
2022-10-09T18:14:03.902Z,14.43
2022-10-09T18:16:36.198Z,14.39
2022-10-09T18:19:07.503Z,14.34
2022-10-09T18:21:35.188Z,14.29
2022-10-09T18:24:01.931Z,14.27
2022-10-09T18:26:28.566Z,14.26
2022-10-09T18:28:55.189Z,14.23
2022-10-09T18:31:23.732Z,14.20
2022-10-09T18:33:52.148Z,14.19
2022-10-09T18:36:22.906Z,14.13
2022-10-09T18:38:52.685Z,14.11
2022-10-09T18:41:21.658Z,14.08
2022-10-09T18:43:49.487Z,14.06
2022-10-09T18:46:17.889Z,14.01
2022-10-09T18:48:45.666Z,13.97
2022-10-09T18:51:16.535Z,13.94
2022-10-09T18:53:47.468Z,13.89
2022-10-09T18:56:16.569Z,13.84
2022-10-09T18:58:43.571Z,13.83
2022-10-09T19:01:10.171Z,13.79
2022-10-09T19:03:36.793Z,13.78
2022-10-09T19:06:04.448Z,13.76
2022-10-09T19:08:31.093Z,13.74
2022-10-09T19:10:57.632Z,13.72
2022-10-09T19:13:25.098Z,13.68
2022-10-09T19:15:53.327Z,13.65
2022-10-09T19:18:21.088Z,13.67
2022-10-09T19:20:48.327Z,13.67
2022-10-09T19:23:15.843Z,13.64
2022-10-09T19:25:51.127Z,13.60
2022-10-09T19:28:18.411Z,13.57
2022-10-09T19:30:46.199Z,13.55
2022-10-09T19:33:13.305Z,13.54
2022-10-09T19:35:49.508Z,13.50
2022-10-09T19:38:18.753Z,13.48
2022-10-09T19:40:46.033Z,13.46
2022-10-09T19:43:14.084Z,13.46
2022-10-09T19:45:41.046Z,13.44
2022-10-09T19:48:07.645Z,13.40
2022-10-09T19:50:34.380Z,13.40
2022-10-09T19:53:03.338Z,13.37
2022-10-09T19:55:33.372Z,13.36
2022-10-09T19:58:00.590Z,13.33
2022-10-09T20:00:27.546Z,13.32
2022-10-09T20:02:54.230Z,13.30
2022-10-09T20:05:21.447Z,13.27
2022-10-09T20:07:47.968Z,13.25
2022-10-09T20:10:14.753Z,13.22
2022-10-09T20:12:41.308Z,13.16
2022-10-09T20:15:08.456Z,13.15
2022-10-09T20:17:35.140Z,13.13
2022-10-09T20:20:05.635Z,13.10
2022-10-09T20:22:32.242Z,13.06
2022-10-09T20:24:58.838Z,13.04
2022-10-09T20:27:25.557Z,13.04
2022-10-09T20:29:53.698Z,13.03
2022-10-09T20:32:20.794Z,12.99
2022-10-09T20:34:47.315Z,13.00
2022-10-09T20:37:13.867Z,12.98
2022-10-09T20:39:40.409Z,12.94
2022-10-09T20:42:07.320Z,12.93
2022-10-09T20:44:34.069Z,12.86
2022-10-09T20:47:00.692Z,12.88
2022-10-09T20:49:27.320Z,12.88
2022-10-09T20:51:53.877Z,12.89
2022-10-09T20:54:21.870Z,12.87
2022-10-09T20:56:49.679Z,12.84
2022-10-09T20:59:16.993Z,12.84
2022-10-09T21:01:44.244Z,12.80
2022-10-09T21:04:12.224Z,12.79
2022-10-09T21:06:39.244Z,12.77
2022-10-09T21:09:06.388Z,12.75
2022-10-09T21:11:34.774Z,12.72
2022-10-09T21:14:02.598Z,12.68
2022-10-09T21:16:29.456Z,12.67
2022-10-09T21:18:58.332Z,12.65
2022-10-09T21:21:25.731Z,12.62
2022-10-09T21:23:54.286Z,12.58
2022-10-09T21:26:22.345Z,12.58
2022-10-09T21:28:49.699Z,12.58
2022-10-09T21:31:20.874Z,12.56
2022-10-09T21:33:47.928Z,12.51
2022-10-09T21:37:16.300Z,12.45
2022-10-09T21:39:37.074Z,12.46
2022-10-09T21:42:03.879Z,12.45
2022-10-09T21:44:30.493Z,12.43
2022-10-09T21:46:57.024Z,12.42
2022-10-09T21:49:25.702Z,12.41
2022-10-09T21:51:52.814Z,12.37
2022-10-09T21:54:20.602Z,12.32
2022-10-09T21:56:47.500Z,12.30
2022-10-09T21:59:14.257Z,12.29
2022-10-09T22:01:40.862Z,12.27
2022-10-09T22:04:07.431Z,12.23
2022-10-09T22:06:34.006Z,12.22
2022-10-09T22:09:00.518Z,12.20
2022-10-09T22:11:30.387Z,12.20
2022-10-09T22:13:57.048Z,12.16
2022-10-09T22:16:23.956Z,12.15
2022-10-09T22:18:50.635Z,12.13
2022-10-09T22:21:17.592Z,12.13
2022-10-09T22:23:44.428Z,12.10
2022-10-09T22:26:14.711Z,12.06
2022-10-09T22:28:41.625Z,12.04
2022-10-09T22:31:15.551Z,12.00
2022-10-09T22:33:42.898Z,12.01
2022-10-09T22:36:12.826Z,11.97
2022-10-09T22:38:39.593Z,11.80
2022-10-09T22:43:49.962Z,11.93
2022-10-09T22:46:19.612Z,11.91
2022-10-09T22:48:46.779Z,11.93
2022-10-09T22:51:16.360Z,11.94
2022-10-09T22:53:43.575Z,11.95
2022-10-09T22:56:15.073Z,11.98
2022-10-09T22:58:41.869Z,11.96
2022-10-09T23:01:15.039Z,11.97
2022-10-09T23:03:42.163Z,11.97
2022-10-09T23:06:13.401Z,11.97
2022-10-09T23:08:41.830Z,11.98
2022-10-09T23:11:09.305Z,11.98
2022-10-09T23:13:36.416Z,11.98
2022-10-09T23:16:05.347Z,11.98
2022-10-09T23:18:33.161Z,11.98
2022-10-09T23:21:02.939Z,11.99
2022-10-09T23:23:29.748Z,12.01
2022-10-09T23:25:56.365Z,12.02
2022-10-09T23:28:23.262Z,12.02
2022-10-09T23:30:49.803Z,12.01
2022-10-09T23:33:16.370Z,12.01
2022-10-09T23:35:43.150Z,12.02
2022-10-09T23:38:09.742Z,12.02
2022-10-09T23:40:36.267Z,12.03
2022-10-09T23:43:02.802Z,12.05
2022-10-09T23:45:29.349Z,12.06
2022-10-09T23:47:55.903Z,12.08
2022-10-09T23:50:22.421Z,12.11
2022-10-09T23:52:49.209Z,12.12
2022-10-09T23:55:15.978Z,12.13
2022-10-09T23:57:42.488Z,12.14
